TAM3456 SBBR-SBIL
Flight info
| Callsign | TAM3456 |
|---|---|
| Flight time | 1h 37m |
| Altitude | 39000 |
| Route | SAVPU UZ32 ARUDI UZ14 DALOX |
| Aircraft | A319/M-SDE3FGHIRWY/LB1 |
Departure
| Time | 2026-05-08 00:05 |
|---|---|
| Airport | Presidente Juscelino Kubitschek International Airport (SBBR) |
Arrival
| Time | 2026-05-08 01:43 |
|---|---|
| Airport | Bahia - Jorge Amado Airport (SBIL) |
| Time | Latitude | Longitude | Altitude | Speed | Heading |
|---|---|---|---|---|---|
| 2026-05-07 23:41 | -15.87270 | -47.91980 | 3465 ft | 0 kts | 356° |
| 2026-05-07 23:42 | -15.87271 | -47.91980 | 3465 ft | 0 kts | 356° |
| 2026-05-07 23:49 | -15.87293 | -47.91980 | 3465 ft | 4 kts | 3° |
| 2026-05-07 23:50 | -15.87320 | -47.91984 | 3465 ft | 4 kts | 28° |
| 2026-05-07 23:50 | -15.87335 | -47.92000 | 3463 ft | 1 kts | 86° |
| 2026-05-07 23:50 | -15.87335 | -47.92004 | 3463 ft | 0 kts | 86° |
| 2026-05-07 23:56 | -15.87334 | -47.91999 | 3465 ft | 2 kts | 86° |
| 2026-05-07 23:56 | -15.87332 | -47.91960 | 3465 ft | 9 kts | 86° |
| 2026-05-07 23:56 | -15.87327 | -47.91884 | 3465 ft | 12 kts | 86° |
| 2026-05-07 23:57 | -15.87321 | -47.91790 | 3465 ft | 14 kts | 86° |
| 2026-05-07 23:57 | -15.87314 | -47.91691 | 3464 ft | 12 kts | 96° |
| 2026-05-07 23:57 | -15.87385 | -47.91662 | 3464 ft | 12 kts | 178° |
| 2026-05-07 23:57 | -15.87477 | -47.91656 | 3463 ft | 14 kts | 176° |
| 2026-05-07 23:58 | -15.87581 | -47.91650 | 3462 ft | 16 kts | 176° |
| 2026-05-07 23:58 | -15.87699 | -47.91643 | 3462 ft | 13 kts | 176° |
| 2026-05-07 23:58 | -15.87738 | -47.91684 | 3462 ft | 9 kts | 269° |
| 2026-05-07 23:58 | -15.87741 | -47.91750 | 3463 ft | 9 kts | 266° |
| 2026-05-07 23:59 | -15.87746 | -47.91820 | 3464 ft | 10 kts | 265° |
| 2026-05-07 23:59 | -15.87751 | -47.91898 | 3466 ft | 12 kts | 266° |
| 2026-05-07 23:59 | -15.87757 | -47.91991 | 3468 ft | 14 kts | 266° |
| 2026-05-07 23:59 | -15.87764 | -47.92095 | 3471 ft | 15 kts | 265° |
| 2026-05-08 00:00 | -15.87771 | -47.92202 | 3473 ft | 15 kts | 266° |
| 2026-05-08 00:00 | -15.87778 | -47.92310 | 3475 ft | 15 kts | 266° |
| 2026-05-08 00:00 | -15.87784 | -47.92418 | 3476 ft | 15 kts | 266° |
| 2026-05-08 00:00 | -15.87792 | -47.92532 | 3477 ft | 16 kts | 266° |
| 2026-05-08 00:01 | -15.87799 | -47.92651 | 3477 ft | 17 kts | 266° |
| 2026-05-08 00:01 | -15.87807 | -47.92770 | 3480 ft | 16 kts | 266° |
| 2026-05-08 00:01 | -15.87815 | -47.92887 | 3482 ft | 17 kts | 265° |
| 2026-05-08 00:01 | -15.87823 | -47.93010 | 3482 ft | 17 kts | 267° |
| 2026-05-08 00:02 | -15.87828 | -47.93133 | 3486 ft | 16 kts | 266° |
| 2026-05-08 00:02 | -15.87836 | -47.93241 | 3503 ft | 14 kts | 265° |
| 2026-05-08 00:02 | -15.87844 | -47.93346 | 3497 ft | 16 kts | 266° |
| 2026-05-08 00:02 | -15.87852 | -47.93473 | 3499 ft | 20 kts | 266° |
| 2026-05-08 00:03 | -15.87861 | -47.93619 | 3502 ft | 20 kts | 266° |
| 2026-05-08 00:03 | -15.87869 | -47.93758 | 3507 ft | 19 kts | 266° |
| 2026-05-08 00:03 | -15.87875 | -47.93847 | 3509 ft | 19 kts | 266° |
| 2026-05-08 00:03 | -15.87919 | -47.93998 | 3511 ft | 15 kts | 199° |
| 2026-05-08 00:04 | -15.88006 | -47.93993 | 3513 ft | 12 kts | 176° |
| 2026-05-08 00:04 | -15.88051 | -47.93989 | 3516 ft | 6 kts | 168° |
| 2026-05-08 00:04 | -15.88063 | -47.93930 | 3514 ft | 12 kts | 86° |
| 2026-05-08 00:04 | -15.88062 | -47.93916 | 3514 ft | 6 kts | 86° |
| 2026-05-08 00:05 | -15.88044 | -47.93633 | 3505 ft | 73 kts | 86° |
| 2026-05-08 00:05 | -15.87996 | -47.92894 | 3481 ft | 131 kts | 86° |
| 2026-05-08 00:05 | -15.87900 | -47.91385 | 3704 ft | 170 kts | 86° |
| 2026-05-08 00:05 | -15.87847 | -47.90555 | 4116 ft | 171 kts | 85° |
| 2026-05-08 00:06 | -15.87768 | -47.89323 | 4711 ft | 173 kts | 84° |
| 2026-05-08 00:06 | -15.87681 | -47.88007 | 5133 ft | 194 kts | 84° |
| 2026-05-08 00:06 | -15.87583 | -47.86529 | 5363 ft | 216 kts | 84° |
| 2026-05-08 00:06 | -15.87476 | -47.84874 | 5614 ft | 242 kts | 84° |
| 2026-05-08 00:07 | -15.87356 | -47.83043 | 6051 ft | 264 kts | 84° |
| 2026-05-08 00:07 | -15.87231 | -47.81106 | 6788 ft | 272 kts | 84° |
| 2026-05-08 00:07 | -15.87103 | -47.79126 | 7605 ft | 277 kts | 84° |
| 2026-05-08 00:07 | -15.86972 | -47.77115 | 8443 ft | 282 kts | 84° |
| 2026-05-08 00:08 | -15.86838 | -47.75070 | 9291 ft | 286 kts | 83° |
| 2026-05-08 00:08 | -15.86701 | -47.72989 | 10118 ft | 291 kts | 83° |
| 2026-05-08 00:08 | -15.86549 | -47.70823 | 10495 ft | 312 kts | 83° |
| 2026-05-08 00:08 | -15.86357 | -47.68528 | 10778 ft | 332 kts | 82° |
| 2026-05-08 00:09 | -15.86149 | -47.66105 | 11352 ft | 341 kts | 84° |
| 2026-05-08 00:09 | -15.86027 | -47.63631 | 12031 ft | 345 kts | 86° |
| 2026-05-08 00:09 | -15.85977 | -47.61124 | 12711 ft | 349 kts | 88° |
| 2026-05-08 00:09 | -15.85959 | -47.58591 | 13392 ft | 353 kts | 88° |
| 2026-05-08 00:10 | -15.85947 | -47.56036 | 14034 ft | 356 kts | 88° |
| 2026-05-08 00:10 | -15.85925 | -47.53453 | 14611 ft | 358 kts | 88° |
| 2026-05-08 00:10 | -15.85888 | -47.50856 | 15194 ft | 361 kts | 88° |
| 2026-05-08 00:10 | -15.85840 | -47.48237 | 15764 ft | 364 kts | 88° |
| 2026-05-08 00:11 | -15.85784 | -47.45597 | 16335 ft | 367 kts | 88° |
| 2026-05-08 00:11 | -15.85725 | -47.42935 | 16898 ft | 370 kts | 89° |
| 2026-05-08 00:11 | -15.85665 | -47.40252 | 17455 ft | 373 kts | 89° |
| 2026-05-08 00:11 | -15.85606 | -47.37546 | 18000 ft | 377 kts | 89° |
| 2026-05-08 00:12 | -15.85547 | -47.34811 | 18509 ft | 380 kts | 89° |
| 2026-05-08 00:12 | -15.85487 | -47.32059 | 18986 ft | 383 kts | 89° |
| 2026-05-08 00:12 | -15.85428 | -47.29291 | 19478 ft | 385 kts | 90° |
| 2026-05-08 00:12 | -15.85368 | -47.26499 | 19976 ft | 388 kts | 90° |
| 2026-05-08 00:13 | -15.85309 | -47.23692 | 20483 ft | 390 kts | 90° |
| 2026-05-08 00:13 | -15.85249 | -47.20865 | 20971 ft | 393 kts | 90° |
| 2026-05-08 00:13 | -15.85189 | -47.18022 | 21463 ft | 395 kts | 90° |
| 2026-05-08 00:13 | -15.85129 | -47.15159 | 21942 ft | 398 kts | 90° |
| 2026-05-08 00:14 | -15.85067 | -47.12280 | 22416 ft | 400 kts | 90° |
| 2026-05-08 00:14 | -15.85003 | -47.09383 | 22880 ft | 403 kts | 90° |
| 2026-05-08 00:14 | -15.84938 | -47.06466 | 23339 ft | 405 kts | 91° |
| 2026-05-08 00:14 | -15.84871 | -47.03533 | 23748 ft | 408 kts | 91° |
| 2026-05-08 00:15 | -15.84804 | -47.00581 | 24106 ft | 410 kts | 91° |
| 2026-05-08 00:15 | -15.84735 | -46.97607 | 24457 ft | 413 kts | 91° |
| 2026-05-08 00:15 | -15.84664 | -46.94612 | 24801 ft | 416 kts | 91° |
| 2026-05-08 00:15 | -15.84595 | -46.91597 | 25147 ft | 419 kts | 91° |
| 2026-05-08 00:16 | -15.84526 | -46.88560 | 25487 ft | 422 kts | 91° |
| 2026-05-08 00:16 | -15.84456 | -46.85500 | 25829 ft | 425 kts | 91° |
| 2026-05-08 00:16 | -15.84385 | -46.82420 | 26164 ft | 428 kts | 91° |
| 2026-05-08 00:16 | -15.84311 | -46.79318 | 26497 ft | 431 kts | 91° |
| 2026-05-08 00:17 | -15.84240 | -46.76196 | 26823 ft | 434 kts | 91° |
| 2026-05-08 00:17 | -15.84169 | -46.73051 | 27146 ft | 437 kts | 91° |
| 2026-05-08 00:17 | -15.84095 | -46.69885 | 27474 ft | 440 kts | 91° |
| 2026-05-08 00:17 | -15.84015 | -46.66701 | 27795 ft | 443 kts | 91° |
| 2026-05-08 00:18 | -15.83935 | -46.63491 | 28121 ft | 446 kts | 91° |
| 2026-05-08 00:18 | -15.83855 | -46.60259 | 28440 ft | 449 kts | 91° |
| 2026-05-08 00:18 | -15.83773 | -46.57007 | 28772 ft | 452 kts | 91° |
| 2026-05-08 00:18 | -15.83691 | -46.53732 | 29094 ft | 455 kts | 91° |
| 2026-05-08 00:19 | -15.83610 | -46.50437 | 29408 ft | 458 kts | 91° |
| 2026-05-08 00:19 | -15.83528 | -46.47123 | 29718 ft | 461 kts | 91° |
| 2026-05-08 00:19 | -15.83444 | -46.43785 | 30022 ft | 464 kts | 91° |
| 2026-05-08 00:19 | -15.83361 | -46.40426 | 30290 ft | 466 kts | 91° |
| 2026-05-08 00:20 | -15.83273 | -46.37052 | 30551 ft | 469 kts | 91° |
| 2026-05-08 00:20 | -15.83184 | -46.33658 | 30813 ft | 471 kts | 91° |
| 2026-05-08 00:20 | -15.83095 | -46.30250 | 31070 ft | 473 kts | 91° |
| 2026-05-08 00:20 | -15.83008 | -46.26826 | 31329 ft | 476 kts | 91° |
| 2026-05-08 00:21 | -15.82920 | -46.23384 | 31586 ft | 478 kts | 92° |
| 2026-05-08 00:21 | -15.82831 | -46.19935 | 31942 ft | 477 kts | 92° |
| 2026-05-08 00:21 | -15.82741 | -46.16490 | 32329 ft | 477 kts | 92° |
| 2026-05-08 00:21 | -15.82651 | -46.13051 | 32723 ft | 476 kts | 92° |
| 2026-05-08 00:22 | -15.82560 | -46.09616 | 33111 ft | 476 kts | 92° |
| 2026-05-08 00:22 | -15.82466 | -46.06182 | 33499 ft | 476 kts | 92° |
| 2026-05-08 00:22 | -15.82372 | -46.02747 | 33897 ft | 475 kts | 92° |
| 2026-05-08 00:22 | -15.82277 | -45.99317 | 34253 ft | 475 kts | 92° |
| 2026-05-08 00:23 | -15.82182 | -45.95888 | 34594 ft | 475 kts | 92° |
| 2026-05-08 00:23 | -15.82089 | -45.92458 | 34917 ft | 475 kts | 92° |
| 2026-05-08 00:23 | -15.81995 | -45.89030 | 35231 ft | 476 kts | 92° |
| 2026-05-08 00:23 | -15.81899 | -45.85591 | 35541 ft | 476 kts | 92° |
| 2026-05-08 00:24 | -15.81802 | -45.82199 | 35844 ft | 476 kts | 92° |
| 2026-05-08 00:24 | -15.81702 | -45.78764 | 36148 ft | 477 kts | 92° |
| 2026-05-08 00:24 | -15.81600 | -45.75322 | 36445 ft | 477 kts | 92° |
| 2026-05-08 00:24 | -15.81501 | -45.71881 | 36741 ft | 477 kts | 92° |
| 2026-05-08 00:25 | -15.81403 | -45.68443 | 37033 ft | 477 kts | 92° |
| 2026-05-08 00:25 | -15.81305 | -45.64996 | 37322 ft | 477 kts | 92° |
| 2026-05-08 00:25 | -15.81209 | -45.61552 | 37603 ft | 477 kts | 92° |
| 2026-05-08 00:25 | -15.81110 | -45.58103 | 37883 ft | 478 kts | 92° |
| 2026-05-08 00:26 | -15.81008 | -45.54661 | 38162 ft | 478 kts | 92° |
| 2026-05-08 00:26 | -15.80905 | -45.51213 | 38418 ft | 478 kts | 92° |
| 2026-05-08 00:26 | -15.80803 | -45.47762 | 38670 ft | 478 kts | 92° |
| 2026-05-08 00:26 | -15.80701 | -45.44314 | 38880 ft | 478 kts | 92° |
| 2026-05-08 00:27 | -15.80598 | -45.40865 | 39002 ft | 478 kts | 92° |
| 2026-05-08 00:27 | -15.80492 | -45.37417 | 39031 ft | 477 kts | 92° |
| 2026-05-08 00:27 | -15.80281 | -45.30535 | 39031 ft | 476 kts | 92° |
| 2026-05-08 00:28 | -15.80077 | -45.23665 | 39031 ft | 476 kts | 92° |
| 2026-05-08 00:28 | -15.79863 | -45.16795 | 39031 ft | 476 kts | 92° |
| 2026-05-08 00:29 | -15.79648 | -45.09927 | 39029 ft | 476 kts | 92° |
| 2026-05-08 00:29 | -15.79434 | -45.03066 | 39034 ft | 476 kts | 92° |
| 2026-05-08 00:30 | -15.79217 | -44.96199 | 39036 ft | 476 kts | 92° |
| 2026-05-08 00:30 | -15.78998 | -44.89337 | 39039 ft | 476 kts | 92° |
| 2026-05-08 00:31 | -15.78776 | -44.82478 | 39038 ft | 476 kts | 92° |
| 2026-05-08 00:31 | -15.78542 | -44.75615 | 39047 ft | 476 kts | 92° |
| 2026-05-08 00:32 | -15.78311 | -44.68750 | 39047 ft | 475 kts | 92° |
| 2026-05-08 00:32 | -15.78092 | -44.61896 | 39051 ft | 475 kts | 92° |
| 2026-05-08 00:33 | -15.77867 | -44.55090 | 39048 ft | 475 kts | 92° |
| 2026-05-08 00:33 | -15.77629 | -44.48244 | 39051 ft | 474 kts | 92° |
| 2026-05-08 00:34 | -15.77396 | -44.41405 | 39051 ft | 474 kts | 92° |
| 2026-05-08 00:34 | -15.77160 | -44.34564 | 39057 ft | 474 kts | 92° |
| 2026-05-08 00:35 | -15.76922 | -44.27722 | 39062 ft | 474 kts | 92° |
| 2026-05-08 00:35 | -15.76683 | -44.20884 | 39062 ft | 474 kts | 92° |
| 2026-05-08 00:36 | -15.76441 | -44.14050 | 39070 ft | 474 kts | 93° |
| 2026-05-08 00:36 | -15.76189 | -44.07215 | 39071 ft | 474 kts | 92° |
| 2026-05-08 00:37 | -15.75939 | -44.00375 | 39069 ft | 474 kts | 93° |
| 2026-05-08 00:38 | -15.75568 | -43.90116 | 39070 ft | 474 kts | 92° |
| 2026-05-08 00:38 | -15.75308 | -43.83286 | 39073 ft | 474 kts | 92° |
| 2026-05-08 00:39 | -15.75048 | -43.76457 | 39066 ft | 474 kts | 92° |
| 2026-05-08 00:39 | -15.74789 | -43.69626 | 39068 ft | 473 kts | 93° |
| 2026-05-08 00:40 | -15.74530 | -43.62795 | 39070 ft | 473 kts | 93° |
| 2026-05-08 00:40 | -15.74278 | -43.56014 | 39072 ft | 474 kts | 93° |
| 2026-05-08 00:41 | -15.74020 | -43.49183 | 39074 ft | 473 kts | 92° |
| 2026-05-08 00:41 | -15.73750 | -43.42362 | 39075 ft | 473 kts | 92° |
| 2026-05-08 00:42 | -15.73478 | -43.35541 | 39072 ft | 472 kts | 93° |
| 2026-05-08 00:42 | -15.73215 | -43.28728 | 39075 ft | 472 kts | 93° |
| 2026-05-08 00:43 | -15.72950 | -43.21922 | 39078 ft | 472 kts | 92° |
| 2026-05-08 00:43 | -15.72675 | -43.15107 | 39081 ft | 472 kts | 92° |
| 2026-05-08 00:44 | -15.72396 | -43.08299 | 39084 ft | 472 kts | 92° |
| 2026-05-08 00:44 | -15.72122 | -43.01485 | 39094 ft | 473 kts | 92° |
| 2026-05-08 00:45 | -15.71843 | -42.94670 | 39102 ft | 472 kts | 92° |
| 2026-05-08 00:45 | -15.71560 | -42.87858 | 39107 ft | 473 kts | 92° |
| 2026-05-08 00:46 | -15.71276 | -42.81046 | 39117 ft | 472 kts | 92° |
| 2026-05-08 00:46 | -15.70989 | -42.74237 | 39122 ft | 472 kts | 92° |
| 2026-05-08 00:47 | -15.70697 | -42.67426 | 39124 ft | 472 kts | 92° |
| 2026-05-08 00:47 | -15.70407 | -42.60621 | 39131 ft | 472 kts | 92° |
| 2026-05-08 00:48 | -15.70116 | -42.53816 | 39134 ft | 472 kts | 92° |
| 2026-05-08 00:48 | -15.69816 | -42.47019 | 39135 ft | 472 kts | 92° |
| 2026-05-08 00:49 | -15.69525 | -42.40269 | 39137 ft | 471 kts | 92° |
| 2026-05-08 00:49 | -15.69236 | -42.33477 | 39135 ft | 471 kts | 92° |
| 2026-05-08 00:50 | -15.68938 | -42.26686 | 39132 ft | 471 kts | 92° |
| 2026-05-08 00:50 | -15.68635 | -42.19896 | 39137 ft | 471 kts | 92° |
| 2026-05-08 00:51 | -15.68327 | -42.13101 | 39135 ft | 471 kts | 92° |
| 2026-05-08 00:51 | -15.68018 | -42.06305 | 39138 ft | 472 kts | 92° |
| 2026-05-08 00:52 | -15.67711 | -41.99512 | 39143 ft | 472 kts | 92° |
| 2026-05-08 00:52 | -15.67449 | -41.93815 | 39138 ft | 471 kts | 92° |
| 2026-05-08 00:53 | -15.67139 | -41.87024 | 39140 ft | 471 kts | 92° |
| 2026-05-08 00:53 | -15.66826 | -41.80237 | 39144 ft | 471 kts | 92° |
| 2026-05-08 00:54 | -15.66507 | -41.73449 | 39147 ft | 471 kts | 92° |
| 2026-05-08 00:54 | -15.66188 | -41.66706 | 39145 ft | 471 kts | 92° |
| 2026-05-08 00:55 | -15.65862 | -41.59925 | 39154 ft | 470 kts | 92° |
| 2026-05-08 00:55 | -15.65543 | -41.53147 | 39148 ft | 470 kts | 92° |
| 2026-05-08 00:56 | -15.65224 | -41.46378 | 39144 ft | 470 kts | 93° |
| 2026-05-08 00:56 | -15.64898 | -41.39608 | 39149 ft | 470 kts | 93° |
| 2026-05-08 00:57 | -15.64566 | -41.32841 | 39149 ft | 470 kts | 92° |
| 2026-05-08 00:57 | -15.64229 | -41.26073 | 39145 ft | 470 kts | 93° |
| 2026-05-08 00:58 | -15.63896 | -41.19307 | 39142 ft | 469 kts | 93° |
| 2026-05-08 00:58 | -15.63570 | -41.12553 | 39145 ft | 469 kts | 93° |
| 2026-05-08 00:59 | -15.63240 | -41.05791 | 39147 ft | 469 kts | 93° |
| 2026-05-08 00:59 | -15.62903 | -40.99034 | 39142 ft | 469 kts | 93° |
| 2026-05-08 01:00 | -15.62561 | -40.92283 | 39141 ft | 469 kts | 93° |
| 2026-05-08 01:00 | -15.62215 | -40.85534 | 39145 ft | 468 kts | 93° |
| 2026-05-08 01:01 | -15.61873 | -40.78786 | 39147 ft | 468 kts | 93° |
| 2026-05-08 01:01 | -15.61529 | -40.72043 | 39145 ft | 468 kts | 93° |
| 2026-05-08 01:02 | -15.61179 | -40.65305 | 39143 ft | 468 kts | 93° |
| 2026-05-08 01:02 | -15.60825 | -40.58569 | 39137 ft | 468 kts | 93° |
| 2026-05-08 01:03 | -15.60480 | -40.51834 | 39133 ft | 467 kts | 92° |
| 2026-05-08 01:03 | -15.60134 | -40.45099 | 39137 ft | 467 kts | 93° |
| 2026-05-08 01:04 | -15.59773 | -40.38412 | 39133 ft | 468 kts | 92° |
| 2026-05-08 01:04 | -15.59399 | -40.31697 | 38794 ft | 464 kts | 93° |
| 2026-05-08 01:04 | -15.59223 | -40.28361 | 38290 ft | 463 kts | 93° |
| 2026-05-08 01:05 | -15.59050 | -40.25024 | 37731 ft | 463 kts | 93° |
| 2026-05-08 01:05 | -15.58842 | -40.21687 | 37150 ft | 466 kts | 88° |
| 2026-05-08 01:05 | -15.58121 | -40.18384 | 36568 ft | 474 kts | 75° |
| 2026-05-08 01:05 | -15.56724 | -40.15258 | 35984 ft | 482 kts | 62° |
| 2026-05-08 01:06 | -15.54700 | -40.12464 | 35382 ft | 488 kts | 50° |
| 2026-05-08 01:06 | -15.52342 | -40.09923 | 34748 ft | 489 kts | 49° |
| 2026-05-08 01:06 | -15.49973 | -40.07385 | 34124 ft | 490 kts | 49° |
| 2026-05-08 01:06 | -15.47605 | -40.04855 | 33409 ft | 489 kts | 49° |
| 2026-05-08 01:07 | -15.45238 | -40.02330 | 32889 ft | 485 kts | 49° |
| 2026-05-08 01:07 | -15.42903 | -39.99832 | 32408 ft | 480 kts | 49° |
| 2026-05-08 01:07 | -15.40598 | -39.97361 | 31920 ft | 475 kts | 49° |
| 2026-05-08 01:07 | -15.38309 | -39.94905 | 31439 ft | 471 kts | 49° |
| 2026-05-08 01:08 | -15.36046 | -39.92478 | 30966 ft | 466 kts | 49° |
| 2026-05-08 01:08 | -15.33804 | -39.90077 | 30487 ft | 462 kts | 49° |
| 2026-05-08 01:08 | -15.31581 | -39.87694 | 30004 ft | 457 kts | 49° |
| 2026-05-08 01:08 | -15.29383 | -39.85334 | 29475 ft | 453 kts | 48° |
| 2026-05-08 01:09 | -15.27205 | -39.82998 | 28963 ft | 448 kts | 48° |
| 2026-05-08 01:09 | -15.25051 | -39.80694 | 28465 ft | 443 kts | 48° |
| 2026-05-08 01:09 | -15.22916 | -39.78411 | 27980 ft | 439 kts | 48° |
| 2026-05-08 01:09 | -15.20804 | -39.76154 | 27487 ft | 434 kts | 47° |
| 2026-05-08 01:10 | -15.18714 | -39.73922 | 27003 ft | 430 kts | 47° |
| 2026-05-08 01:10 | -15.16643 | -39.71712 | 26534 ft | 425 kts | 47° |
| 2026-05-08 01:10 | -15.14594 | -39.69525 | 26078 ft | 421 kts | 47° |
| 2026-05-08 01:10 | -15.12564 | -39.67355 | 25634 ft | 418 kts | 47° |
| 2026-05-08 01:11 | -15.10552 | -39.65205 | 25199 ft | 414 kts | 47° |
| 2026-05-08 01:11 | -15.08563 | -39.63077 | 24721 ft | 408 kts | 47° |
| 2026-05-08 01:11 | -15.06600 | -39.60981 | 24051 ft | 403 kts | 47° |
| 2026-05-08 01:11 | -15.04660 | -39.58914 | 23323 ft | 398 kts | 46° |
| 2026-05-08 01:12 | -15.02745 | -39.56876 | 22528 ft | 392 kts | 46° |
| 2026-05-08 01:12 | -15.00878 | -39.54886 | 22175 ft | 375 kts | 46° |
| 2026-05-08 01:12 | -14.99229 | -39.52879 | 21811 ft | 359 kts | 53° |
| 2026-05-08 01:12 | -14.97733 | -39.50844 | 21241 ft | 352 kts | 53° |
| 2026-05-08 01:13 | -14.96263 | -39.48841 | 20620 ft | 347 kts | 53° |
| 2026-05-08 01:13 | -14.94812 | -39.46862 | 20004 ft | 343 kts | 53° |
| 2026-05-08 01:13 | -14.93374 | -39.44904 | 19402 ft | 340 kts | 53° |
| 2026-05-08 01:13 | -14.91957 | -39.42971 | 18806 ft | 336 kts | 53° |
| 2026-05-08 01:14 | -14.90571 | -39.41082 | 18324 ft | 329 kts | 53° |
| 2026-05-08 01:14 | -14.89229 | -39.39255 | 18197 ft | 310 kts | 53° |
| 2026-05-08 01:14 | -14.87955 | -39.37522 | 17979 ft | 299 kts | 53° |
| 2026-05-08 01:14 | -14.86701 | -39.35819 | 17451 ft | 297 kts | 53° |
| 2026-05-08 01:15 | -14.85457 | -39.34129 | 16937 ft | 294 kts | 53° |
| 2026-05-08 01:15 | -14.84222 | -39.32449 | 16265 ft | 296 kts | 53° |
| 2026-05-08 01:15 | -14.82948 | -39.30715 | 15359 ft | 307 kts | 53° |
| 2026-05-08 01:15 | -14.81741 | -39.28894 | 14704 ft | 306 kts | 65° |
| 2026-05-08 01:16 | -14.81187 | -39.26805 | 14157 ft | 301 kts | 86° |
| 2026-05-08 01:16 | -14.81429 | -39.24678 | 13577 ft | 299 kts | 108° |
| 2026-05-08 01:16 | -14.82423 | -39.22811 | 12969 ft | 298 kts | 129° |
| 2026-05-08 01:16 | -14.84023 | -39.21468 | 12372 ft | 299 kts | 150° |
| 2026-05-08 01:17 | -14.86003 | -39.20835 | 11792 ft | 301 kts | 172° |
| 2026-05-08 01:17 | -14.88088 | -39.21019 | 11212 ft | 304 kts | 194° |
| 2026-05-08 01:17 | -14.89995 | -39.22027 | 10627 ft | 307 kts | 217° |
| 2026-05-08 01:17 | -14.91461 | -39.23631 | 10042 ft | 308 kts | 229° |
| 2026-05-08 01:18 | -14.92791 | -39.25362 | 9440 ft | 307 kts | 231° |
| 2026-05-08 01:18 | -14.94073 | -39.27116 | 8851 ft | 304 kts | 232° |
| 2026-05-08 01:18 | -14.95326 | -39.28864 | 8285 ft | 301 kts | 232° |
| 2026-05-08 01:18 | -14.96530 | -39.30625 | 7726 ft | 299 kts | 240° |
| 2026-05-08 01:19 | -14.97182 | -39.32617 | 7207 ft | 297 kts | 263° |
| 2026-05-08 01:19 | -14.97083 | -39.34726 | 6690 ft | 294 kts | 285° |
| 2026-05-08 01:19 | -14.96258 | -39.36631 | 6158 ft | 289 kts | 308° |
| 2026-05-08 01:19 | -14.94856 | -39.38071 | 5618 ft | 282 kts | 329° |
| 2026-05-08 01:20 | -14.93097 | -39.38875 | 5155 ft | 271 kts | 352° |
| 2026-05-08 01:20 | -14.91301 | -39.38998 | 4999 ft | 250 kts | 9° |
| 2026-05-08 01:20 | -14.89658 | -39.38583 | 4603 ft | 239 kts | 27° |
| 2026-05-08 01:20 | -14.88263 | -39.37692 | 4132 ft | 234 kts | 46° |
| 2026-05-08 01:21 | -14.87226 | -39.36417 | 3707 ft | 232 kts | 55° |
| 2026-05-08 01:21 | -14.86252 | -39.35116 | 3548 ft | 224 kts | 54° |
| 2026-05-08 01:21 | -14.85313 | -39.33866 | 3392 ft | 217 kts | 55° |
| 2026-05-08 01:21 | -14.84399 | -39.32648 | 3199 ft | 210 kts | 55° |
| 2026-05-08 01:22 | -14.83535 | -39.31497 | 3058 ft | 194 kts | 55° |
| 2026-05-08 01:22 | -14.82815 | -39.30396 | 2871 ft | 176 kts | 65° |
| 2026-05-08 01:22 | -14.82398 | -39.29236 | 2784 ft | 170 kts | 78° |
| 2026-05-08 01:22 | -14.82245 | -39.28037 | 2710 ft | 167 kts | 90° |
| 2026-05-08 01:23 | -14.82219 | -39.26840 | 2708 ft | 167 kts | 90° |
| 2026-05-08 01:23 | -14.82187 | -39.25663 | 2705 ft | 155 kts | 90° |
| 2026-05-08 01:23 | -14.82158 | -39.24587 | 2715 ft | 146 kts | 90° |
| 2026-05-08 01:23 | -14.82129 | -39.23556 | 2708 ft | 142 kts | 90° |
| 2026-05-08 01:24 | -14.82101 | -39.22541 | 2710 ft | 141 kts | 90° |
| 2026-05-08 01:24 | -14.82074 | -39.21533 | 2712 ft | 140 kts | 91° |
| 2026-05-08 01:24 | -14.82048 | -39.20532 | 2709 ft | 139 kts | 90° |
| 2026-05-08 01:24 | -14.82021 | -39.19541 | 2711 ft | 140 kts | 90° |
| 2026-05-08 01:25 | -14.81995 | -39.18538 | 2709 ft | 140 kts | 91° |
| 2026-05-08 01:25 | -14.81970 | -39.17527 | 2623 ft | 141 kts | 90° |
| 2026-05-08 01:25 | -14.81944 | -39.16522 | 2424 ft | 140 kts | 90° |
| 2026-05-08 01:25 | -14.81917 | -39.15514 | 2232 ft | 141 kts | 90° |
| 2026-05-08 01:26 | -14.81890 | -39.14510 | 2030 ft | 139 kts | 91° |
| 2026-05-08 01:26 | -14.81864 | -39.13508 | 1835 ft | 140 kts | 90° |
| 2026-05-08 01:26 | -14.81836 | -39.12499 | 1646 ft | 140 kts | 91° |
| 2026-05-08 01:26 | -14.81810 | -39.11494 | 1444 ft | 141 kts | 91° |
| 2026-05-08 01:27 | -14.81784 | -39.10484 | 1261 ft | 141 kts | 91° |
| 2026-05-08 01:27 | -14.81757 | -39.09471 | 1076 ft | 141 kts | 89° |
| 2026-05-08 01:27 | -14.81726 | -39.08451 | 870 ft | 143 kts | 89° |
| 2026-05-08 01:27 | -14.81687 | -39.07416 | 727 ft | 145 kts | 91° |
| 2026-05-08 01:28 | -14.81670 | -39.06364 | 542 ft | 147 kts | 89° |
| 2026-05-08 01:28 | -14.81637 | -39.05298 | 335 ft | 149 kts | 90° |
| 2026-05-08 01:28 | -14.81615 | -39.04220 | 99 ft | 150 kts | 88° |
| 2026-05-08 01:28 | -14.81586 | -39.03141 | 185 ft | 152 kts | 88° |
| 2026-05-08 01:29 | -14.81541 | -39.02054 | 840 ft | 151 kts | 89° |
| 2026-05-08 01:29 | -14.81486 | -39.00944 | 1559 ft | 160 kts | 88° |
| 2026-05-08 01:29 | -14.81441 | -38.99719 | 2086 ft | 181 kts | 90° |
| 2026-05-08 01:29 | -14.81420 | -38.98354 | 2595 ft | 195 kts | 90° |
| 2026-05-08 01:30 | -14.81397 | -38.96944 | 3371 ft | 197 kts | 89° |
| 2026-05-08 01:30 | -14.81368 | -38.95534 | 3867 ft | 200 kts | 89° |
| 2026-05-08 01:30 | -14.81335 | -38.94083 | 3986 ft | 199 kts | 89° |
| 2026-05-08 01:30 | -14.81303 | -38.92678 | 4002 ft | 198 kts | 90° |
| 2026-05-08 01:31 | -14.81624 | -38.91321 | 4004 ft | 199 kts | 122° |
| 2026-05-08 01:31 | -14.82702 | -38.90432 | 4004 ft | 205 kts | 158° |
| 2026-05-08 01:31 | -14.84128 | -38.90211 | 4007 ft | 210 kts | 174° |
| 2026-05-08 01:31 | -14.85587 | -38.90162 | 4009 ft | 210 kts | 175° |
| 2026-05-08 01:32 | -14.87049 | -38.90136 | 4007 ft | 210 kts | 175° |
| 2026-05-08 01:32 | -14.88503 | -38.90332 | 4003 ft | 216 kts | 198° |
| 2026-05-08 01:32 | -14.89716 | -38.91256 | 4004 ft | 223 kts | 231° |
| 2026-05-08 01:32 | -14.90284 | -38.92741 | 4006 ft | 226 kts | 265° |
| 2026-05-08 01:33 | -14.90303 | -38.94365 | 4007 ft | 227 kts | 270° |
| 2026-05-08 01:33 | -14.90304 | -38.96000 | 4009 ft | 227 kts | 270° |
| 2026-05-08 01:33 | -14.90310 | -38.97631 | 4007 ft | 227 kts | 270° |
| 2026-05-08 01:33 | -14.90319 | -38.99265 | 4010 ft | 227 kts | 270° |
| 2026-05-08 01:34 | -14.90328 | -39.00892 | 4009 ft | 226 kts | 269° |
| 2026-05-08 01:34 | -14.90340 | -39.02522 | 4009 ft | 227 kts | 270° |
| 2026-05-08 01:34 | -14.90349 | -39.04152 | 4011 ft | 226 kts | 269° |
| 2026-05-08 01:34 | -14.90355 | -39.05777 | 4008 ft | 226 kts | 269° |
| 2026-05-08 01:35 | -14.90363 | -39.07400 | 4010 ft | 226 kts | 269° |
| 2026-05-08 01:35 | -14.90373 | -39.09024 | 4009 ft | 226 kts | 269° |
| 2026-05-08 01:35 | -14.90381 | -39.10645 | 4008 ft | 226 kts | 269° |
| 2026-05-08 01:35 | -14.90387 | -39.12264 | 4009 ft | 225 kts | 269° |
| 2026-05-08 01:36 | -14.90393 | -39.13885 | 4007 ft | 226 kts | 269° |
| 2026-05-08 01:36 | -14.90402 | -39.15500 | 4007 ft | 225 kts | 269° |
| 2026-05-08 01:36 | -14.90413 | -39.17116 | 4006 ft | 225 kts | 269° |
| 2026-05-08 01:36 | -14.90407 | -39.18738 | 4003 ft | 225 kts | 274° |
| 2026-05-08 01:37 | -14.89853 | -39.20214 | 4009 ft | 223 kts | 314° |
| 2026-05-08 01:37 | -14.88593 | -39.21015 | 3924 ft | 207 kts | 352° |
| 2026-05-08 01:37 | -14.87200 | -39.21099 | 3779 ft | 195 kts | 4° |
| 2026-05-08 01:37 | -14.85885 | -39.21128 | 3565 ft | 185 kts | 3° |
| 2026-05-08 01:38 | -14.84615 | -39.21160 | 3237 ft | 183 kts | 3° |
| 2026-05-08 01:38 | -14.83349 | -39.21155 | 2810 ft | 181 kts | 12° |
| 2026-05-08 01:38 | -14.82380 | -39.20553 | 2704 ft | 153 kts | 56° |
| 2026-05-08 01:38 | -14.82081 | -39.19927 | 2710 ft | 144 kts | 78° |
| 2026-05-08 01:39 | -14.82016 | -39.18918 | 2716 ft | 140 kts | 91° |
| 2026-05-08 01:39 | -14.81974 | -39.17587 | 2707 ft | 134 kts | 91° |
| 2026-05-08 01:39 | -14.81954 | -39.16961 | 2708 ft | 130 kts | 91° |
| 2026-05-08 01:39 | -14.81926 | -39.16034 | 2709 ft | 128 kts | 91° |
| 2026-05-08 01:40 | -14.81901 | -39.15122 | 2708 ft | 126 kts | 91° |
| 2026-05-08 01:40 | -14.81871 | -39.13921 | 2707 ft | 126 kts | 91° |
| 2026-05-08 01:40 | -14.81847 | -39.13019 | 2684 ft | 124 kts | 91° |
| 2026-05-08 01:40 | -14.81830 | -39.12425 | 2490 ft | 122 kts | 91° |
| 2026-05-08 01:41 | -14.81804 | -39.11538 | 2071 ft | 125 kts | 91° |
| 2026-05-08 01:41 | -14.81779 | -39.10637 | 1698 ft | 126 kts | 91° |
| 2026-05-08 01:41 | -14.81754 | -39.09733 | 1313 ft | 126 kts | 91° |
| 2026-05-08 01:41 | -14.81729 | -39.08826 | 963 ft | 125 kts | 92° |
| 2026-05-08 01:42 | -14.81705 | -39.07913 | 1000 ft | 130 kts | 92° |
| 2026-05-08 01:42 | -14.81681 | -39.06981 | 976 ft | 131 kts | 91° |
| 2026-05-08 01:42 | -14.81642 | -39.06027 | 627 ft | 134 kts | 90° |
| 2026-05-08 01:42 | -14.81634 | -39.05060 | 304 ft | 135 kts | 88° |
| 2026-05-08 01:43 | -14.81610 | -39.04080 | 50 ft | 135 kts | 88° |
| 2026-05-08 01:43 | -14.81590 | -39.03244 | 19 ft | 81 kts | 89° |
| 2026-05-08 01:43 | -14.81583 | -39.02963 | 18 ft | 12 kts | 89° |
| 2026-05-08 01:43 | -14.81583 | -39.02865 | 18 ft | 15 kts | 89° |
| 2026-05-08 01:44 | -14.81580 | -39.02746 | 20 ft | 16 kts | 88° |
| 2026-05-08 01:44 | -14.81597 | -39.02650 | 20 ft | 13 kts | 126° |
| 2026-05-08 01:44 | -14.81582 | -39.02601 | 21 ft | 8 kts | 348° |
| 2026-05-08 01:44 | -14.81573 | -39.02661 | 21 ft | 11 kts | 266° |
| 2026-05-08 01:45 | -14.81576 | -39.02761 | 22 ft | 16 kts | 269° |
| 2026-05-08 01:45 | -14.81575 | -39.02892 | 21 ft | 20 kts | 271° |
| 2026-05-08 01:45 | -14.81583 | -39.03016 | 18 ft | 14 kts | 266° |
| 2026-05-08 01:45 | -14.81586 | -39.03128 | 18 ft | 16 kts | 269° |
| 2026-05-08 01:46 | -14.81584 | -39.03222 | 18 ft | 8 kts | 282° |
| 2026-05-08 01:46 | -14.81546 | -39.03248 | 19 ft | 7 kts | 356° |
| 2026-05-08 01:46 | -14.81503 | -39.03245 | 20 ft | 5 kts | 14° |
| 2026-05-08 01:46 | -14.81486 | -39.03209 | 19 ft | 7 kts | 82° |
| 2026-05-08 01:47 | -14.81458 | -39.03196 | 20 ft | 4 kts | 346° |
| 2026-05-08 01:47 | -14.81445 | -39.03209 | 21 ft | 0 kts | 309° |